sensor_id;sensor_type;location;lat;lon;timestamp;pressure;altitude;pressure_sealevel;temperature;humidity
27805;BME280;15183;51.350;11.102;2023-10-09T00:01:07;100554.00;;;17.73;55.95
27805;BME280;15183;51.350;11.102;2023-10-09T00:03:47;100526.38;;;17.68;55.56
27805;BME280;15183;51.350;11.102;2023-10-09T00:06:18;100512.66;;;17.64;56.27
27805;BME280;15183;51.350;11.102;2023-10-09T00:08:50;100491.97;;;17.59;55.83
27805;BME280;15183;51.350;11.102;2023-10-09T00:11:21;100529.44;;;17.82;55.91
27805;BME280;15183;51.350;11.102;2023-10-09T00:13:48;100528.97;;;17.95;55.46
27805;BME280;15183;51.350;11.102;2023-10-09T00:16:21;100514.22;;;17.92;55.52
27805;BME280;15183;51.350;11.102;2023-10-09T00:19:01;100523.72;;;18.05;55.38
27805;BME280;15183;51.350;11.102;2023-10-09T00:21:47;100522.63;;;18.06;55.52
27805;BME280;15183;51.350;11.102;2023-10-09T00:24:15;100483.91;;;17.92;55.82
27805;BME280;15183;51.350;11.102;2023-10-09T00:26:54;100484.34;;;17.78;55.12
27805;BME280;15183;51.350;11.102;2023-10-09T00:29:28;100519.44;;;18.10;55.93
27805;BME280;15183;51.350;11.102;2023-10-09T00:32:01;100508.16;;;18.07;55.62
27805;BME280;15183;51.350;11.102;2023-10-09T00:34:39;100511.41;;;18.10;55.69
27805;BME280;15183;51.350;11.102;2023-10-09T00:37:07;100506.56;;;18.06;55.52
27805;BME280;15183;51.350;11.102;2023-10-09T00:39:43;100486.28;;;17.83;55.68
27805;BME280;15183;51.350;11.102;2023-10-09T00:42:11;100460.13;;;17.63;55.45
27805;BME280;15183;51.350;11.102;2023-10-09T00:44:47;100509.13;;;17.91;55.51
27805;BME280;15183;51.350;11.102;2023-10-09T00:47:15;100504.53;;;17.91;55.49
27805;BME280;15183;51.350;11.102;2023-10-09T00:49:58;100456.69;;;17.68;55.71
27805;BME280;15183;51.350;11.102;2023-10-09T00:52:37;100482.28;;;17.86;55.53
27805;BME280;15183;51.350;11.102;2023-10-09T00:55:12;100444.38;;;17.67;55.88
27805;BME280;15183;51.350;11.102;2023-10-09T00:57:50;100482.84;;;17.93;55.57
27805;BME280;15183;51.350;11.102;2023-10-09T01:00:24;100450.31;;;17.74;56.12
27805;BME280;15183;51.350;11.102;2023-10-09T01:03:16;100447.66;;;17.79;55.97
27805;BME280;15183;51.350;11.102;2023-10-09T01:05:57;100469.44;;;17.88;56.09
27805;BME280;15183;51.350;11.102;2023-10-09T01:08:39;100464.84;;;17.88;55.94
27805;BME280;15183;51.350;11.102;2023-10-09T01:11:14;100404.03;;;17.46;55.77
27805;BME280;15183;51.350;11.102;2023-10-09T01:13:56;100435.50;;;17.66;55.86
27805;BME280;15183;51.350;11.102;2023-10-09T01:16:34;100438.69;;;17.63;55.98
27805;BME280;15183;51.350;11.102;2023-10-09T01:19:00;100393.22;;;17.30;56.00
27805;BME280;15183;51.350;11.102;2023-10-09T01:21:32;100439.97;;;17.55;56.10
27805;BME280;15183;51.350;11.102;2023-10-09T01:23:58;100436.44;;;17.44;56.04
27805;BME280;15183;51.350;11.102;2023-10-09T01:26:25;100415.16;;;17.27;56.46
27805;BME280;15183;51.350;11.102;2023-10-09T01:28:52;100419.13;;;17.25;56.40
27805;BME280;15183;51.350;11.102;2023-10-09T01:31:25;100351.56;;;16.85;56.51
27805;BME280;15183;51.350;11.102;2023-10-09T01:34:00;100393.03;;;17.10;56.90
27805;BME280;15183;51.350;11.102;2023-10-09T01:36:26;100390.63;;;17.08;56.84
27805;BME280;15183;51.350;11.102;2023-10-09T01:39:00;100386.56;;;17.05;56.93
27805;BME280;15183;51.350;11.102;2023-10-09T01:41:34;100355.09;;;16.90;56.73
27805;BME280;15183;51.350;11.102;2023-10-09T01:44:00;100375.13;;;17.10;56.64
27805;BME280;15183;51.350;11.102;2023-10-09T01:46:38;100379.09;;;17.07;56.63
27805;BME280;15183;51.350;11.102;2023-10-09T01:49:04;100344.88;;;16.82;56.39
27805;BME280;15183;51.350;11.102;2023-10-09T01:51:42;100352.69;;;16.89;57.07
27805;BME280;15183;51.350;11.102;2023-10-09T01:54:09;100366.34;;;16.92;56.90
27805;BME280;15183;51.350;11.102;2023-10-09T01:56:43;100361.47;;;16.84;56.80
27805;BME280;15183;51.350;11.102;2023-10-09T01:59:12;100364.16;;;16.84;56.80
27805;BME280;15183;51.350;11.102;2023-10-09T02:01:39;100375.50;;;16.97;56.77
27805;BME280;15183;51.350;11.102;2023-10-09T02:04:14;100354.31;;;16.90;57.20
27805;BME280;15183;51.350;11.102;2023-10-09T02:06:42;100362.44;;;17.00;56.79
27805;BME280;15183;51.350;11.102;2023-10-09T02:09:09;100345.00;;;16.98;57.08
27805;BME280;15183;51.350;11.102;2023-10-09T02:11:45;100346.53;;;16.88;57.08
27805;BME280;15183;51.350;11.102;2023-10-09T02:14:12;100330.66;;;16.82;57.05
27805;BME280;15183;51.350;11.102;2023-10-09T02:16:48;100317.00;;;16.78;56.96
27805;BME280;15183;51.350;11.102;2023-10-09T02:19:35;100347.69;;;16.98;57.02
27805;BME280;15183;51.350;11.102;2023-10-09T02:22:02;100355.97;;;16.96;57.03
27805;BME280;15183;51.350;11.102;2023-10-09T02:24:45;100342.44;;;16.81;56.82
27805;BME280;15183;51.350;11.102;2023-10-09T02:27:15;100323.38;;;16.72;57.17
27805;BME280;15183;51.350;11.102;2023-10-09T02:30:00;100333.34;;;16.82;57.41
27805;BME280;15183;51.350;11.102;2023-10-09T02:32:34;100305.25;;;16.79;57.30
27805;BME280;15183;51.350;11.102;2023-10-09T02:35:02;100312.75;;;16.82;57.21
27805;BME280;15183;51.350;11.102;2023-10-09T02:37:37;100324.03;;;16.89;57.47
27805;BME280;15183;51.350;11.102;2023-10-09T02:40:05;100318.66;;;16.84;57.09
27805;BME280;15183;51.350;11.102;2023-10-09T02:42:35;100271.22;;;16.42;57.37
27805;BME280;15183;51.350;11.102;2023-10-09T02:45:01;100291.13;;;16.56;57.32
27805;BME280;15183;51.350;11.102;2023-10-09T02:47:30;100287.84;;;16.49;57.79
27805;BME280;15183;51.350;11.102;2023-10-09T02:50:05;100311.41;;;16.52;57.62
27805;BME280;15183;51.350;11.102;2023-10-09T02:52:47;100314.59;;;16.49;58.01
27805;BME280;15183;51.350;11.102;2023-10-09T02:55:20;100337.56;;;16.45;57.99
27805;BME280;15183;51.350;11.102;2023-10-09T02:57:53;100315.41;;;16.22;58.62
27805;BME280;15183;51.350;11.102;2023-10-09T03:00:32;100300.88;;;16.13;58.76
27805;BME280;15183;51.350;11.102;2023-10-09T03:03:03;100326.72;;;16.29;58.66
27805;BME280;15183;51.350;11.102;2023-10-09T03:05:33;100268.09;;;15.95;58.47
27805;BME280;15183;51.350;11.102;2023-10-09T03:08:00;100331.91;;;16.41;58.49
27805;BME280;15183;51.350;11.102;2023-10-09T03:10:26;100319.09;;;16.43;58.58
27805;BME280;15183;51.350;11.102;2023-10-09T03:12:53;100316.13;;;16.40;58.50
27805;BME280;15183;51.350;11.102;2023-10-09T03:15:20;100285.47;;;16.25;58.16
27805;BME280;15183;51.350;11.102;2023-10-09T03:17:47;100295.09;;;16.48;58.42
27805;BME280;15183;51.350;11.102;2023-10-09T03:20:16;100299.75;;;16.63;58.06
27805;BME280;15183;51.350;11.102;2023-10-09T03:22:46;100307.06;;;16.73;57.91
27805;BME280;15183;51.350;11.102;2023-10-09T03:25:13;100295.28;;;16.74;58.24
27805;BME280;15183;51.350;11.102;2023-10-09T03:27:43;100284.31;;;16.71;57.95
27805;BME280;15183;51.350;11.102;2023-10-09T03:30:17;100235.19;;;16.49;58.10
27805;BME280;15183;51.350;11.102;2023-10-09T03:32:49;100243.69;;;16.46;58.22
27805;BME280;15183;51.350;11.102;2023-10-09T03:35:23;100274.94;;;16.73;57.77
27805;BME280;15183;51.350;11.102;2023-10-09T03:37:57;100239.50;;;16.56;58.33
27805;BME280;15183;51.350;11.102;2023-10-09T03:40:26;100273.63;;;16.76;57.89
27805;BME280;15183;51.350;11.102;2023-10-09T03:42:53;100256.41;;;16.67;58.29
27805;BME280;15183;51.350;11.102;2023-10-09T03:45:20;100254.22;;;16.58;58.29
27805;BME280;15183;51.350;11.102;2023-10-09T03:47:56;100246.66;;;16.50;58.64
27805;BME280;15183;51.350;11.102;2023-10-09T03:50:37;100236.41;;;16.37;59.14
27805;BME280;15183;51.350;11.102;2023-10-09T03:53:05;100227.78;;;16.29;59.15
27805;BME280;15183;51.350;11.102;2023-10-09T03:55:38;100161.78;;;15.75;59.20
27805;BME280;15183;51.350;11.102;2023-10-09T03:58:06;100214.81;;;16.16;59.47
27805;BME280;15183;51.350;11.102;2023-10-09T04:00:33;100211.03;;;16.12;59.35
27805;BME280;15183;51.350;11.102;2023-10-09T04:03:11;100166.28;;;15.74;59.58
27805;BME280;15183;51.350;11.102;2023-10-09T04:05:41;100203.25;;;15.83;60.13
27805;BME280;15183;51.350;11.102;2023-10-09T04:08:10;100177.25;;;15.51;60.32
27805;BME280;15183;51.350;11.102;2023-10-09T04:10:42;100200.72;;;15.48;60.29
27805;BME280;15183;51.350;11.102;2023-10-09T04:13:19;100186.38;;;15.32;60.81
27805;BME280;15183;51.350;11.102;2023-10-09T04:15:50;100105.13;;;14.79;60.98
27805;BME280;15183;51.350;11.102;2023-10-09T04:18:20;100146.22;;;15.00;60.78
27805;BME280;15183;51.350;11.102;2023-10-09T04:20:47;100157.50;;;15.07;61.47
27805;BME280;15183;51.350;11.102;2023-10-09T04:23:17;100195.16;;;15.28;60.95
27805;BME280;15183;51.350;11.102;2023-10-09T04:25:59;100180.97;;;15.27;61.59
27805;BME280;15183;51.350;11.102;2023-10-09T04:28:26;100177.59;;;15.32;61.11
27805;BME280;15183;51.350;11.102;2023-10-09T04:30:55;100197.25;;;15.48;61.04
27805;BME280;15183;51.350;11.102;2023-10-09T04:33:25;100200.66;;;15.43;61.39
27805;BME280;15183;51.350;11.102;2023-10-09T04:36:01;100169.81;;;15.30;61.25
27805;BME280;15183;51.350;11.102;2023-10-09T04:38:47;100169.31;;;15.33;61.41
27805;BME280;15183;51.350;11.102;2023-10-09T04:41:32;100178.75;;;15.41;60.96
27805;BME280;15183;51.350;11.102;2023-10-09T04:44:00;100170.28;;;15.49;61.13
27805;BME280;15183;51.350;11.102;2023-10-09T04:46:49;100164.94;;;15.49;61.25
27805;BME280;15183;51.350;11.102;2023-10-09T04:49:36;100177.13;;;15.62;61.27
27805;BME280;15183;51.350;11.102;2023-10-09T04:52:27;100173.06;;;15.55;61.24
27805;BME280;15183;51.350;11.102;2023-10-09T04:55:17;100165.81;;;15.55;61.17
27805;BME280;15183;51.350;11.102;2023-10-09T04:57:51;100147.88;;;15.51;61.53
27805;BME280;15183;51.350;11.102;2023-10-09T05:00:39;100157.03;;;15.55;61.21
27805;BME280;15183;51.350;11.102;2023-10-09T05:03:08;100166.16;;;15.59;61.38
27805;BME280;15183;51.350;11.102;2023-10-09T05:05:39;100120.41;;;15.28;61.71
27805;BME280;15183;51.350;11.102;2023-10-09T05:08:18;100150.63;;;15.56;61.29
27805;BME280;15183;51.350;11.102;2023-10-09T05:10:50;100161.31;;;15.56;61.87
27805;BME280;15183;51.350;11.102;2023-10-09T05:13:35;100152.97;;;15.52;61.82
27805;BME280;15183;51.350;11.102;2023-10-09T05:16:15;100146.72;;;15.41;61.88
27805;BME280;15183;51.350;11.102;2023-10-09T05:18:49;100126.03;;;15.31;61.88
27805;BME280;15183;51.350;11.102;2023-10-09T05:21:54;100136.72;;;15.31;62.19
27805;BME280;15183;51.350;11.102;2023-10-09T05:24:24;100134.31;;;15.30;62.04
27805;BME280;15183;51.350;11.102;2023-10-09T05:26:53;100118.19;;;15.19;62.17
27805;BME280;15183;51.350;11.102;2023-10-09T05:29:24;100137.78;;;15.30;62.39
27805;BME280;15183;51.350;11.102;2023-10-09T05:32:04;100176.50;;;15.55;62.57
27805;BME280;15183;51.350;11.102;2023-10-09T05:34:45;100164.53;;;15.58;62.44
27805;BME280;15183;51.350;11.102;2023-10-09T05:37:30;100150.44;;;15.40;62.35
27805;BME280;15183;51.350;11.102;2023-10-09T05:40:04;100178.50;;;15.65;62.65
27805;BME280;15183;51.350;11.102;2023-10-09T05:42:44;100186.00;;;15.68;62.36
27805;BME280;15183;51.350;11.102;2023-10-09T05:45:17;100171.81;;;15.68;62.46
27805;BME280;15183;51.350;11.102;2023-10-09T05:47:53;100167.19;;;15.58;62.33
27805;BME280;15183;51.350;11.102;2023-10-09T05:50:20;100162.69;;;15.63;62.39
27805;BME280;15183;51.350;11.102;2023-10-09T05:52:56;100140.19;;;15.54;62.25
27805;BME280;15183;51.350;11.102;2023-10-09T05:55:32;100171.69;;;15.80;62.15
27805;BME280;15183;51.350;11.102;2023-10-09T05:58:16;100194.56;;;15.93;61.97
27805;BME280;15183;51.350;11.102;2023-10-09T06:00:46;100206.72;;;16.05;62.13
27805;BME280;15183;51.350;11.102;2023-10-09T06:03:31;100201.56;;;15.99;62.01
27805;BME280;15183;51.350;11.102;2023-10-09T06:06:15;100211.50;;;16.03;61.87
27805;BME280;15183;51.350;11.102;2023-10-09T06:09:03;100221.09;;;15.99;62.30
27805;BME280;15183;51.350;11.102;2023-10-09T06:11:39;100211.69;;;15.97;62.53
27805;BME280;15183;51.350;11.102;2023-10-09T06:14:06;100207.47;;;16.01;62.76
27805;BME280;15183;51.350;11.102;2023-10-09T06:16:36;100147.19;;;15.60;62.41
27805;BME280;15183;51.350;11.102;2023-10-09T06:19:22;100203.34;;;16.15;62.36
27805;BME280;15183;51.350;11.102;2023-10-09T06:21:49;100217.84;;;16.25;62.67
27805;BME280;15183;51.350;11.102;2023-10-09T06:24:22;100217.09;;;16.29;62.43
27805;BME280;15183;51.350;11.102;2023-10-09T06:26:50;100208.44;;;16.22;62.59
27805;BME280;15183;51.350;11.102;2023-10-09T06:29:26;100238.31;;;16.41;62.15
27805;BME280;15183;51.350;11.102;2023-10-09T06:32:05;100226.81;;;16.41;62.50
27805;BME280;15183;51.350;11.102;2023-10-09T06:35:01;100237.28;;;16.47;61.94
27805;BME280;15183;51.350;11.102;2023-10-09T06:37:46;100238.34;;;16.46;61.65
27805;BME280;15183;51.350;11.102;2023-10-09T06:40:36;100258.19;;;16.51;61.61
27805;BME280;15183;51.350;11.102;2023-10-09T06:43:03;100211.03;;;16.12;61.95
27805;BME280;15183;51.350;11.102;2023-10-09T06:45:41;100270.19;;;16.48;61.56
27805;BME280;15183;51.350;11.102;2023-10-09T06:48:13;100235.03;;;16.34;61.48
27805;BME280;15183;51.350;11.102;2023-10-09T06:51:02;100223.59;;;16.39;61.32
27805;BME280;15183;51.350;11.102;2023-10-09T06:53:47;100247.03;;;16.59;61.50
27805;BME280;15183;51.350;11.102;2023-10-09T06:56:27;100241.94;;;16.62;61.41
27805;BME280;15183;51.350;11.102;2023-10-09T06:58:59;100233.41;;;16.66;61.54
27805;BME280;15183;51.350;11.102;2023-10-09T07:01:25;100228.06;;;16.66;61.39
27805;BME280;15183;51.350;11.102;2023-10-09T07:03:57;100213.63;;;16.67;61.26
27805;BME280;15183;51.350;11.102;2023-10-09T07:06:36;100200.25;;;16.67;61.58
27805;BME280;15183;51.350;11.102;2023-10-09T07:09:03;100210.25;;;16.82;61.54
27805;BME280;15183;51.350;11.102;2023-10-09T07:11:40;100192.84;;;16.79;61.11
27805;BME280;15183;51.350;11.102;2023-10-09T07:14:12;100210.34;;;16.97;60.94
27805;BME280;15183;51.350;11.102;2023-10-09T07:17:06;100253.34;;;17.23;61.10
27805;BME280;15183;51.350;11.102;2023-10-09T07:19:52;100242.09;;;17.21;60.97
27805;BME280;15183;51.350;11.102;2023-10-09T07:22:22;100256.34;;;17.32;60.69
27805;BME280;15183;51.350;11.102;2023-10-09T07:24:57;100252.88;;;17.31;60.70
27805;BME280;15183;51.350;11.102;2023-10-09T07:30:16;100254.50;;;17.38;60.88
27805;BME280;15183;51.350;11.102;2023-10-09T07:33:07;100268.97;;;17.42;60.97
27805;BME280;15183;51.350;11.102;2023-10-09T07:35:44;100262.34;;;17.49;60.82
27805;BME280;15183;51.350;11.102;2023-10-09T07:40:48;100261.13;;;17.25;61.70
27805;BME280;15183;51.350;11.102;2023-10-09T07:43:35;100273.22;;;17.27;62.22
27805;BME280;15183;51.350;11.102;2023-10-09T07:46:10;100267.03;;;17.27;62.51
27805;BME280;15183;51.350;11.102;2023-10-09T07:48:56;100270.78;;;17.26;62.46
27805;BME280;15183;51.350;11.102;2023-10-09T07:51:24;100262.75;;;17.31;62.42
27805;BME280;15183;51.350;11.102;2023-10-09T07:54:00;100272.97;;;17.39;62.58
27805;BME280;15183;51.350;11.102;2023-10-09T07:56:41;100238.66;;;17.31;62.37
27805;BME280;15183;51.350;11.102;2023-10-09T07:59:08;100223.63;;;17.25;62.84
27805;BME280;15183;51.350;11.102;2023-10-09T08:01:42;100237.88;;;17.35;62.79
27805;BME280;15183;51.350;11.102;2023-10-09T08:04:27;100258.03;;;17.48;62.99
27805;BME280;15183;51.350;11.102;2023-10-09T08:07:11;100270.59;;;17.43;63.07
27805;BME280;15183;51.350;11.102;2023-10-09T08:09:52;100249.66;;;17.34;62.99
27805;BME280;15183;51.350;11.102;2023-10-09T08:12:38;100254.16;;;17.24;63.51
27805;BME280;15183;51.350;11.102;2023-10-09T08:15:25;100282.06;;;17.38;63.82
27805;BME280;15183;51.350;11.102;2023-10-09T08:18:17;100262.75;;;17.26;64.25
27805;BME280;15183;51.350;11.102;2023-10-09T08:20:55;100267.31;;;17.25;64.14
27805;BME280;15183;51.350;11.102;2023-10-09T08:23:24;100292.78;;;17.33;64.18
27805;BME280;15183;51.350;11.102;2023-10-09T08:26:16;100260.53;;;17.12;64.37
27805;BME280;15183;51.350;11.102;2023-10-09T08:28:56;100289.22;;;17.22;64.67
27805;BME280;15183;51.350;11.102;2023-10-09T08:31:41;100281.69;;;17.19;65.02
27805;BME280;15183;51.350;11.102;2023-10-09T08:34:23;100264.78;;;17.08;64.99
27805;BME280;15183;51.350;11.102;2023-10-09T08:36:52;100258.84;;;17.01;65.44
27805;BME280;15183;51.350;11.102;2023-10-09T08:39:21;100273.63;;;17.09;65.43
27805;BME280;15183;51.350;11.102;2023-10-09T08:41:56;100211.97;;;16.60;65.02
27805;BME280;15183;51.350;11.102;2023-10-09T08:44:25;100296.19;;;17.23;65.49
27805;BME280;15183;51.350;11.102;2023-10-09T08:46:57;100270.19;;;17.13;65.54
27805;BME280;15183;51.350;11.102;2023-10-09T08:49:26;100283.88;;;17.22;65.59
27805;BME280;15183;51.350;11.102;2023-10-09T08:51:52;100274.75;;;17.18;66.09
27805;BME280;15183;51.350;11.102;2023-10-09T08:54:19;100221.28;;;16.90;66.17
27805;BME280;15183;51.350;11.102;2023-10-09T08:56:46;100264.03;;;17.18;66.20
27805;BME280;15183;51.350;11.102;2023-10-09T08:59:17;100278.31;;;17.34;66.58
27805;BME280;15183;51.350;11.102;2023-10-09T09:01:48;100253.59;;;17.16;66.29
27805;BME280;15183;51.350;11.102;2023-10-09T09:04:41;100277.00;;;17.36;66.40
27805;BME280;15183;51.350;11.102;2023-10-09T09:07:27;100253.63;;;17.27;66.70
27805;BME280;15183;51.350;11.102;2023-10-09T09:09:59;100247.81;;;17.40;66.52
27805;BME280;15183;51.350;11.102;2023-10-09T09:12:47;100232.25;;;17.37;66.71
27805;BME280;15183;51.350;11.102;2023-10-09T09:15:19;100226.13;;;17.42;66.73
27805;BME280;15183;51.350;11.102;2023-10-09T09:17:47;100243.59;;;17.55;66.92
27805;BME280;15183;51.350;11.102;2023-10-09T09:24:04;100237.97;;;17.61;67.36
27805;BME280;15183;51.350;11.102;2023-10-09T09:26:53;100230.50;;;17.63;67.61
27805;BME280;15183;51.350;11.102;2023-10-09T09:32:04;100243.09;;;17.73;68.12
27805;BME280;15183;51.350;11.102;2023-10-09T09:34:52;100183.50;;;17.35;67.94
27805;BME280;15183;51.350;11.102;2023-10-09T09:37:27;100241.28;;;17.84;68.51
27805;BME280;15183;51.350;11.102;2023-10-09T09:39:58;100231.09;;;17.91;68.64
27805;BME280;15183;51.350;11.102;2023-10-09T09:42:30;100215.84;;;17.97;68.31
27805;BME280;15183;51.350;11.102;2023-10-09T09:45:02;100187.41;;;17.81;68.88
27805;BME280;15183;51.350;11.102;2023-10-09T09:47:30;100196.78;;;17.99;68.37
27805;BME280;15183;51.350;11.102;2023-10-09T09:50:02;100188.53;;;18.05;68.81
27805;BME280;15183;51.350;11.102;2023-10-09T09:52:48;100139.41;;;17.84;68.90
27805;BME280;15183;51.350;11.102;2023-10-09T09:55:26;100133.78;;;17.91;69.12
27805;BME280;15183;51.350;11.102;2023-10-09T09:57:57;100134.91;;;18.05;69.14
27805;BME280;15183;51.350;11.102;2023-10-09T10:00:29;100168.69;;;18.37;69.07
27805;BME280;15183;51.350;11.102;2023-10-09T10:03:20;100173.25;;;18.47;69.42
27805;BME280;15183;51.350;11.102;2023-10-09T10:05:51;100194.41;;;18.70;69.46
27805;BME280;15183;51.350;11.102;2023-10-09T10:08:20;100175.34;;;18.66;69.49
27805;BME280;15183;51.350;11.102;2023-10-09T10:10:49;100201.34;;;18.86;69.58
27805;BME280;15183;51.350;11.102;2023-10-09T10:16:11;100171.59;;;18.77;70.35
27805;BME280;15183;51.350;11.102;2023-10-09T10:19:06;100196.22;;;18.95;69.82
27805;BME280;15183;51.350;11.102;2023-10-09T10:21:44;100199.19;;;19.04;70.15
27805;BME280;15183;51.350;11.102;2023-10-09T10:27:15;100207.47;;;19.13;69.86
27805;BME280;15183;51.350;11.102;2023-10-09T10:35:19;100217.38;;;19.28;70.94
27805;BME280;15183;51.350;11.102;2023-10-09T10:37:59;100208.22;;;19.29;70.55
27805;BME280;15183;51.350;11.102;2023-10-09T10:40:43;100216.81;;;19.41;70.90
27805;BME280;15183;51.350;11.102;2023-10-09T10:43:19;100193.19;;;19.33;70.71
27805;BME280;15183;51.350;11.102;2023-10-09T10:46:05;100224.25;;;19.55;70.50
27805;BME280;15183;51.350;11.102;2023-10-09T10:48:35;100212.38;;;19.61;71.02
27805;BME280;15183;51.350;11.102;2023-10-09T10:51:05;100146.97;;;19.31;70.66
27805;BME280;15183;51.350;11.102;2023-10-09T10:53:32;100205.59;;;19.74;70.64
27805;BME280;15183;51.350;11.102;2023-10-09T10:56:13;100154.72;;;19.37;70.95
27805;BME280;15183;51.350;11.102;2023-10-09T10:58:54;100187.59;;;19.74;70.84
27805;BME280;15183;51.350;11.102;2023-10-09T11:01:33;100135.56;;;19.55;70.53
27805;BME280;15183;51.350;11.102;2023-10-09T11:04:26;100164.16;;;19.80;70.59
27805;BME280;15183;51.350;11.102;2023-10-09T11:06:59;100152.53;;;19.90;70.57
27805;BME280;15183;51.350;11.102;2023-10-09T11:09:53;100145.03;;;19.87;70.85
27805;BME280;15183;51.350;11.102;2023-10-09T11:12:42;100142.34;;;19.87;70.53
27805;BME280;15183;51.350;11.102;2023-10-09T11:15:12;100142.56;;;19.95;70.17
27805;BME280;15183;51.350;11.102;2023-10-09T11:18:06;100093.03;;;19.62;70.07
27805;BME280;15183;51.350;11.102;2023-10-09T11:20:44;100142.28;;;19.97;70.00
27805;BME280;15183;51.350;11.102;2023-10-09T11:23:23;100166.38;;;20.13;70.03
27805;BME280;15183;51.350;11.102;2023-10-09T11:26:03;100140.13;;;19.99;69.73
27805;BME280;15183;51.350;11.102;2023-10-09T11:29:14;100143.56;;;20.05;69.64
27805;BME280;15183;51.350;11.102;2023-10-09T11:31:59;100162.09;;;20.12;69.72
27805;BME280;15183;51.350;11.102;2023-10-09T11:34:27;100143.25;;;20.12;70.22
27805;BME280;15183;51.350;11.102;2023-10-09T11:36:59;100139.97;;;20.20;69.50
27805;BME280;15183;51.350;11.102;2023-10-09T11:39:29;100138.88;;;20.21;69.76
27805;BME280;15183;51.350;11.102;2023-10-09T11:42:07;100155.94;;;20.35;69.71
27805;BME280;15183;51.350;11.102;2023-10-09T11:44:36;100157.81;;;20.40;69.59
27805;BME280;15183;51.350;11.102;2023-10-09T11:47:07;100156.09;;;20.49;69.58
27805;BME280;15183;51.350;11.102;2023-10-09T11:49:49;100163.28;;;20.59;69.74
27805;BME280;15183;51.350;11.102;2023-10-09T11:52:23;100136.22;;;20.45;69.17
27805;BME280;15183;51.350;11.102;2023-10-09T11:55:03;100168.53;;;20.70;69.66
27805;BME280;15183;51.350;11.102;2023-10-09T11:57:29;100150.78;;;20.68;69.04
27805;BME280;15183;51.350;11.102;2023-10-09T12:00:01;100103.09;;;20.45;68.96
27805;BME280;15183;51.350;11.102;2023-10-09T12:02:36;100153.56;;;20.88;69.17
27805;BME280;15183;51.350;11.102;2023-10-09T12:05:10;100168.00;;;20.97;69.32
27805;BME280;15183;51.350;11.102;2023-10-09T12:07:45;100147.03;;;20.94;68.65
27805;BME280;15183;51.350;11.102;2023-10-09T12:10:12;100155.78;;;21.05;68.23
27805;BME280;15183;51.350;11.102;2023-10-09T12:12:42;100149.63;;;21.04;68.00
27805;BME280;15183;51.350;11.102;2023-10-09T12:15:13;100146.94;;;21.04;68.30
27805;BME280;15183;51.350;11.102;2023-10-09T12:17:46;100158.88;;;21.17;68.19
27805;BME280;15183;51.350;11.102;2023-10-09T12:20:16;100144.81;;;21.20;67.95
27805;BME280;15183;51.350;11.102;2023-10-09T12:22:59;100132.44;;;21.19;68.20
27805;BME280;15183;51.350;11.102;2023-10-09T12:25:26;100154.31;;;21.37;67.42
27805;BME280;15183;51.350;11.102;2023-10-09T12:27:52;100113.13;;;21.12;67.33
27805;BME280;15183;51.350;11.102;2023-10-09T12:30:24;100145.72;;;21.35;67.53
27805;BME280;15183;51.350;11.102;2023-10-09T12:32:54;100136.63;;;21.31;67.42
27805;BME280;15183;51.350;11.102;2023-10-09T12:35:21;100150.53;;;21.38;67.16
27805;BME280;15183;51.350;11.102;2023-10-09T12:37:47;100138.28;;;21.27;67.29
27805;BME280;15183;51.350;11.102;2023-10-09T12:40:15;100152.47;;;21.32;66.91
27805;BME280;15183;51.350;11.102;2023-10-09T12:42:51;100165.88;;;21.37;67.20
27805;BME280;15183;51.350;11.102;2023-10-09T12:45:21;100118.28;;;20.89;67.33
27805;BME280;15183;51.350;11.102;2023-10-09T12:47:58;100140.28;;;20.96;67.43
27805;BME280;15183;51.350;11.102;2023-10-09T12:50:26;100163.13;;;20.99;68.10
27805;BME280;15183;51.350;11.102;2023-10-09T12:52:59;100173.00;;;20.85;68.40
27805;BME280;15183;51.350;11.102;2023-10-09T12:55:40;100160.53;;;20.64;69.32
27805;BME280;15183;51.350;11.102;2023-10-09T12:58:09;100171.34;;;20.59;69.76
27805;BME280;15183;51.350;11.102;2023-10-09T13:00:37;100174.16;;;20.49;69.63
27805;BME280;15183;51.350;11.102;2023-10-09T13:03:06;100182.03;;;20.40;69.88
27805;BME280;15183;51.350;11.102;2023-10-09T13:05:49;100195.00;;;20.33;69.81
27805;BME280;15183;51.350;11.102;2023-10-09T13:08:21;100160.25;;;20.07;70.53
27805;BME280;15183;51.350;11.102;2023-10-09T13:10:51;100183.06;;;20.15;70.78
27805;BME280;15183;51.350;11.102;2023-10-09T13:13:28;100159.81;;;19.94;71.04
27805;BME280;15183;51.350;11.102;2023-10-09T13:16:17;100168.16;;;19.88;70.96
27805;BME280;15183;51.350;11.102;2023-10-09T13:18:58;100184.56;;;19.91;71.36
27805;BME280;15183;51.350;11.102;2023-10-09T13:21:32;100183.25;;;19.84;71.45
27805;BME280;15183;51.350;11.102;2023-10-09T13:23:58;100210.34;;;19.87;71.50
27805;BME280;15183;51.350;11.102;2023-10-09T13:26:26;100190.84;;;19.71;71.82
27805;BME280;15183;51.350;11.102;2023-10-09T13:29:03;100188.13;;;19.76;71.98
27805;BME280;15183;51.350;11.102;2023-10-09T13:31:31;100120.09;;;19.31;72.38
27805;BME280;15183;51.350;11.102;2023-10-09T13:34:00;100159.22;;;19.52;72.22
27805;BME280;15183;51.350;11.102;2023-10-09T13:36:27;100172.63;;;19.58;72.67
27805;BME280;15183;51.350;11.102;2023-10-09T13:39:06;100185.50;;;19.61;72.36
27805;BME280;15183;51.350;11.102;2023-10-09T13:44:31;100192.22;;;19.63;72.89
27805;BME280;15183;51.350;11.102;2023-10-09T13:47:00;100192.75;;;19.65;73.16